KBCB

Details ICAO KBCB
Name Virginia Tech Montgomery Executive
Region United States
Timezone America/New_York (UTC-5.0)
Plans Departing 7
Arriving 15
Stats Elevation 2,132 ft / 650 m (AMSL)
Location 37.207636° -80.407799°
Runways 1
Magnetic Variation 8.389° W
Sunrise 2017-12-11 12:26:58 UTC / 2017-12-11 07:26:58 Local
Sunset 2017-12-11 22:05:55 UTC / 2017-12-11 17:05:55 Local
Advertisement - Login to hide

Runways

ID Width Length Bearing (true) Bearing (mag) Surface Threshold Offset Overrun Length
12 98 ft / 30 m 4,543 ft / 1,385 m 117.28° 125.67° Asphalt 161 ft / 49 m 0 ft / 0 m
30 98 ft / 30 m 4,543 ft / 1,385 m 297.29° 305.68° Asphalt 187 ft / 57 m 141 ft / 43 m

Map

Weather


0- 5 10 15 20 25 30 35+ Temperature / ° C

Clouds and Precipitation
Forecast for 2017-12-12 00:00 UTC. Updated 2 hours ago

Ground ~20,000 ft ~40,000 ft Winds

METAR

KBCB 112255Z AUTO 17003KT 10SM CLR 07/M02 A2992 RMK AO2 T00661025

TAF

KBCB 111734Z 1118/1218 26006KT P6SM FEW250 FM120500 23004KT P6SM BKN080 WS020/24035KT FM120800 25006KT P6SM BKN040 FM121200 27011KT P6SM VCSH BKN030 FM121300 27013KT 4SM -SHSN BKN030

Frequencies

Recorded 133.32 MHz AWOS 3
Clearance 124.85 MHz ROANOKE CLNC DEL
Unicom 123.05 MHz CTAF/UNICOM
Approach 126.90 MHz ROANOKE APP/DEP
Warning: Do not use this data for real-world aviation or navigation. No guarantee of current accuracy is given.